Terminal Aerodrome Forecast
Issued by NWS

Home | Current Version | Previous Version | Text Only | Print | Product List | Glossary On
Versions: 1 2 3 4 5 6 7 8 9 10 11 12 13 14
000
FTUS45 KVEF 242300
TAFBIH
TAF
KBIH 242333Z 2500/2524 16010G18KT P6SM SKC
     FM250300 17008KT P6SM SKC
     FM250600 33006KT P6SM SKC
     FM252100 16010G18KT P6SM SKC=

USA.gov is the U.S. government's official web portal to all federal, state and local government web resources and services.